sensor_id;sensor_type;location;lat;lon;timestamp;temperature;humidity
7704;DHT22;3894;49.700;10.770;2022-08-27T00:01:15;18.60;99.90
7704;DHT22;3894;49.700;10.770;2022-08-27T00:03:44;18.60;99.90
7704;DHT22;3894;49.700;10.770;2022-08-27T00:06:15;18.60;99.90
7704;DHT22;3894;49.700;10.770;2022-08-27T00:08:41;18.60;99.90
7704;DHT22;3894;49.700;10.770;2022-08-27T00:11:08;18.70;99.90
7704;DHT22;3894;49.700;10.770;2022-08-27T00:13:34;18.70;99.90
7704;DHT22;3894;49.700;10.770;2022-08-27T00:16:01;18.80;99.90
7704;DHT22;3894;49.700;10.770;2022-08-27T00:18:27;18.80;99.90
7704;DHT22;3894;49.700;10.770;2022-08-27T00:20:52;18.90;99.90
7704;DHT22;3894;49.700;10.770;2022-08-27T00:23:18;19.00;99.90
7704;DHT22;3894;49.700;10.770;2022-08-27T00:25:43;19.10;99.90
7704;DHT22;3894;49.700;10.770;2022-08-27T00:28:09;19.10;99.90
7704;DHT22;3894;49.700;10.770;2022-08-27T00:30:35;19.00;99.90
7704;DHT22;3894;49.700;10.770;2022-08-27T00:33:01;19.10;99.90
7704;DHT22;3894;49.700;10.770;2022-08-27T00:35:28;19.10;99.90
7704;DHT22;3894;49.700;10.770;2022-08-27T00:37:54;19.10;99.90
7704;DHT22;3894;49.700;10.770;2022-08-27T00:40:20;19.20;99.90
7704;DHT22;3894;49.700;10.770;2022-08-27T00:42:46;19.20;99.90
7704;DHT22;3894;49.700;10.770;2022-08-27T00:45:16;19.20;99.90
7704;DHT22;3894;49.700;10.770;2022-08-27T00:47:45;19.20;99.90
7704;DHT22;3894;49.700;10.770;2022-08-27T00:50:17;19.20;99.90
7704;DHT22;3894;49.700;10.770;2022-08-27T00:52:47;19.20;99.90
7704;DHT22;3894;49.700;10.770;2022-08-27T00:55:20;19.20;99.90
7704;DHT22;3894;49.700;10.770;2022-08-27T00:57:51;19.20;99.90
7704;DHT22;3894;49.700;10.770;2022-08-27T01:00:18;19.10;99.90
7704;DHT22;3894;49.700;10.770;2022-08-27T01:02:44;19.10;99.90
7704;DHT22;3894;49.700;10.770;2022-08-27T01:05:16;19.10;99.90
7704;DHT22;3894;49.700;10.770;2022-08-27T01:07:46;19.10;99.90
7704;DHT22;3894;49.700;10.770;2022-08-27T01:10:22;19.20;99.90
7704;DHT22;3894;49.700;10.770;2022-08-27T01:12:49;19.20;99.90
7704;DHT22;3894;49.700;10.770;2022-08-27T01:15:19;19.30;99.90
7704;DHT22;3894;49.700;10.770;2022-08-27T01:17:47;19.30;99.90
7704;DHT22;3894;49.700;10.770;2022-08-27T01:20:18;19.30;99.90
7704;DHT22;3894;49.700;10.770;2022-08-27T01:23:06;19.30;99.90
7704;DHT22;3894;49.700;10.770;2022-08-27T01:25:34;19.30;99.90
7704;DHT22;3894;49.700;10.770;2022-08-27T01:28:01;19.20;99.90
7704;DHT22;3894;49.700;10.770;2022-08-27T01:30:28;19.30;99.90
7704;DHT22;3894;49.700;10.770;2022-08-27T01:32:54;19.20;99.90
7704;DHT22;3894;49.700;10.770;2022-08-27T01:35:20;19.10;99.90
7704;DHT22;3894;49.700;10.770;2022-08-27T01:37:50;19.10;99.90
7704;DHT22;3894;49.700;10.770;2022-08-27T01:40:19;19.20;99.90
7704;DHT22;3894;49.700;10.770;2022-08-27T01:42:50;19.20;99.90
7704;DHT22;3894;49.700;10.770;2022-08-27T01:45:26;19.10;99.90
7704;DHT22;3894;49.700;10.770;2022-08-27T01:47:52;19.10;99.90
7704;DHT22;3894;49.700;10.770;2022-08-27T01:50:22;19.10;99.90
7704;DHT22;3894;49.700;10.770;2022-08-27T01:52:49;19.10;99.90
7704;DHT22;3894;49.700;10.770;2022-08-27T01:55:18;19.20;99.90
7704;DHT22;3894;49.700;10.770;2022-08-27T01:57:44;19.20;99.90
7704;DHT22;3894;49.700;10.770;2022-08-27T02:00:17;19.10;99.90
7704;DHT22;3894;49.700;10.770;2022-08-27T02:02:44;19.10;99.90
7704;DHT22;3894;49.700;10.770;2022-08-27T02:05:10;19.10;99.90
7704;DHT22;3894;49.700;10.770;2022-08-27T02:07:37;19.20;99.90
7704;DHT22;3894;49.700;10.770;2022-08-27T02:10:05;19.20;99.90
7704;DHT22;3894;49.700;10.770;2022-08-27T02:12:31;19.10;99.90
7704;DHT22;3894;49.700;10.770;2022-08-27T02:14:56;19.10;99.90
7704;DHT22;3894;49.700;10.770;2022-08-27T02:17:22;19.10;99.90
7704;DHT22;3894;49.700;10.770;2022-08-27T02:19:47;19.00;99.90
7704;DHT22;3894;49.700;10.770;2022-08-27T02:22:13;18.90;99.90
7704;DHT22;3894;49.700;10.770;2022-08-27T02:24:39;18.80;99.90
7704;DHT22;3894;49.700;10.770;2022-08-27T02:27:05;18.70;99.90
7704;DHT22;3894;49.700;10.770;2022-08-27T02:29:31;18.70;99.90
7704;DHT22;3894;49.700;10.770;2022-08-27T02:31:58;18.70;99.90
7704;DHT22;3894;49.700;10.770;2022-08-27T02:34:24;18.70;99.90
7704;DHT22;3894;49.700;10.770;2022-08-27T02:36:50;18.70;99.90
7704;DHT22;3894;49.700;10.770;2022-08-27T02:39:16;18.70;99.90
7704;DHT22;3894;49.700;10.770;2022-08-27T02:41:42;18.70;99.90
7704;DHT22;3894;49.700;10.770;2022-08-27T02:44:07;18.70;99.90
7704;DHT22;3894;49.700;10.770;2022-08-27T02:46:33;18.80;99.90
7704;DHT22;3894;49.700;10.770;2022-08-27T02:49:01;18.80;99.90
7704;DHT22;3894;49.700;10.770;2022-08-27T02:51:27;18.80;99.90
7704;DHT22;3894;49.700;10.770;2022-08-27T02:53:52;18.90;99.90
7704;DHT22;3894;49.700;10.770;2022-08-27T02:56:18;18.90;99.90
7704;DHT22;3894;49.700;10.770;2022-08-27T02:58:44;18.80;99.90
7704;DHT22;3894;49.700;10.770;2022-08-27T03:01:10;18.70;99.90
7704;DHT22;3894;49.700;10.770;2022-08-27T03:03:36;18.70;99.90
7704;DHT22;3894;49.700;10.770;2022-08-27T03:06:02;18.60;99.90
7704;DHT22;3894;49.700;10.770;2022-08-27T03:08:28;18.60;99.90
7704;DHT22;3894;49.700;10.770;2022-08-27T03:10:56;18.60;99.90
7704;DHT22;3894;49.700;10.770;2022-08-27T03:13:23;18.60;99.90
7704;DHT22;3894;49.700;10.770;2022-08-27T03:15:50;18.60;99.90
7704;DHT22;3894;49.700;10.770;2022-08-27T03:18:15;18.70;99.90
7704;DHT22;3894;49.700;10.770;2022-08-27T03:20:50;18.60;99.90
7704;DHT22;3894;49.700;10.770;2022-08-27T03:23:17;18.60;99.90
7704;DHT22;3894;49.700;10.770;2022-08-27T03:25:47;18.60;99.90
7704;DHT22;3894;49.700;10.770;2022-08-27T03:28:16;18.60;99.90
7704;DHT22;3894;49.700;10.770;2022-08-27T03:30:42;18.70;99.90
7704;DHT22;3894;49.700;10.770;2022-08-27T03:33:10;18.80;99.90
7704;DHT22;3894;49.700;10.770;2022-08-27T03:35:36;18.80;99.90
7704;DHT22;3894;49.700;10.770;2022-08-27T03:38:02;18.80;99.90
7704;DHT22;3894;49.700;10.770;2022-08-27T03:40:27;18.80;99.90
7704;DHT22;3894;49.700;10.770;2022-08-27T03:42:53;18.80;99.90
7704;DHT22;3894;49.700;10.770;2022-08-27T03:45:19;18.70;99.90
7704;DHT22;3894;49.700;10.770;2022-08-27T03:47:44;18.80;99.90
7704;DHT22;3894;49.700;10.770;2022-08-27T03:50:10;18.70;99.90
7704;DHT22;3894;49.700;10.770;2022-08-27T03:52:36;18.60;99.90
7704;DHT22;3894;49.700;10.770;2022-08-27T03:55:04;18.50;99.90
7704;DHT22;3894;49.700;10.770;2022-08-27T03:57:31;18.50;99.90
7704;DHT22;3894;49.700;10.770;2022-08-27T03:59:57;18.40;99.90
7704;DHT22;3894;49.700;10.770;2022-08-27T04:02:23;18.40;99.90
7704;DHT22;3894;49.700;10.770;2022-08-27T04:04:49;18.40;99.90
7704;DHT22;3894;49.700;10.770;2022-08-27T04:07:14;18.40;99.90
7704;DHT22;3894;49.700;10.770;2022-08-27T04:09:40;18.50;99.90
7704;DHT22;3894;49.700;10.770;2022-08-27T04:12:06;18.50;99.90
7704;DHT22;3894;49.700;10.770;2022-08-27T04:14:32;18.40;99.90
7704;DHT22;3894;49.700;10.770;2022-08-27T04:16:58;18.40;99.90
7704;DHT22;3894;49.700;10.770;2022-08-27T04:19:25;18.30;99.90
7704;DHT22;3894;49.700;10.770;2022-08-27T04:22:03;18.30;99.90
7704;DHT22;3894;49.700;10.770;2022-08-27T04:24:30;18.30;99.90
7704;DHT22;3894;49.700;10.770;2022-08-27T04:26:56;18.40;99.90
7704;DHT22;3894;49.700;10.770;2022-08-27T04:29:22;18.30;99.90
7704;DHT22;3894;49.700;10.770;2022-08-27T04:31:48;18.30;99.90
7704;DHT22;3894;49.700;10.770;2022-08-27T04:34:14;18.20;99.90
7704;DHT22;3894;49.700;10.770;2022-08-27T04:36:40;18.20;99.90
7704;DHT22;3894;49.700;10.770;2022-08-27T04:39:06;18.20;99.90
7704;DHT22;3894;49.700;10.770;2022-08-27T04:41:31;18.10;99.90
7704;DHT22;3894;49.700;10.770;2022-08-27T04:44:01;18.10;99.90
7704;DHT22;3894;49.700;10.770;2022-08-27T04:46:30;18.20;99.90
7704;DHT22;3894;49.700;10.770;2022-08-27T04:48:58;18.30;99.90
7704;DHT22;3894;49.700;10.770;2022-08-27T04:51:25;18.30;99.90
7704;DHT22;3894;49.700;10.770;2022-08-27T04:53:50;18.40;99.90
7704;DHT22;3894;49.700;10.770;2022-08-27T04:56:18;18.40;99.90
7704;DHT22;3894;49.700;10.770;2022-08-27T04:58:45;18.40;99.90
7704;DHT22;3894;49.700;10.770;2022-08-27T05:01:22;18.40;99.90
7704;DHT22;3894;49.700;10.770;2022-08-27T05:03:48;18.50;99.90
7704;DHT22;3894;49.700;10.770;2022-08-27T05:06:13;18.50;99.90
7704;DHT22;3894;49.700;10.770;2022-08-27T05:08:39;18.50;99.90
7704;DHT22;3894;49.700;10.770;2022-08-27T05:11:07;18.60;99.90
7704;DHT22;3894;49.700;10.770;2022-08-27T05:13:34;18.60;99.90
7704;DHT22;3894;49.700;10.770;2022-08-27T05:16:03;18.60;99.90
7704;DHT22;3894;49.700;10.770;2022-08-27T05:18:29;18.60;99.90
7704;DHT22;3894;49.700;10.770;2022-08-27T05:20:55;18.60;99.90
7704;DHT22;3894;49.700;10.770;2022-08-27T05:23:21;18.50;99.90
7704;DHT22;3894;49.700;10.770;2022-08-27T05:25:48;18.50;99.90
7704;DHT22;3894;49.700;10.770;2022-08-27T05:28:15;18.50;99.90
7704;DHT22;3894;49.700;10.770;2022-08-27T05:30:44;18.50;99.90
7704;DHT22;3894;49.700;10.770;2022-08-27T05:33:12;18.50;99.90
7704;DHT22;3894;49.700;10.770;2022-08-27T05:35:59;18.60;99.90
7704;DHT22;3894;49.700;10.770;2022-08-27T05:38:27;18.50;99.90
7704;DHT22;3894;49.700;10.770;2022-08-27T05:41:09;18.50;99.90
7704;DHT22;3894;49.700;10.770;2022-08-27T05:43:36;18.60;99.90
7704;DHT22;3894;49.700;10.770;2022-08-27T05:46:05;18.60;99.90
7704;DHT22;3894;49.700;10.770;2022-08-27T05:48:32;18.60;99.90
7704;DHT22;3894;49.700;10.770;2022-08-27T05:51:16;18.50;99.90
7704;DHT22;3894;49.700;10.770;2022-08-27T05:53:42;18.60;99.90
7704;DHT22;3894;49.700;10.770;2022-08-27T05:56:17;18.60;99.90
7704;DHT22;3894;49.700;10.770;2022-08-27T05:58:43;18.70;99.90
7704;DHT22;3894;49.700;10.770;2022-08-27T06:01:29;18.70;99.90
7704;DHT22;3894;49.700;10.770;2022-08-27T06:03:54;18.90;99.90
7704;DHT22;3894;49.700;10.770;2022-08-27T06:06:21;18.90;99.90
7704;DHT22;3894;49.700;10.770;2022-08-27T06:08:47;18.90;99.90
7704;DHT22;3894;49.700;10.770;2022-08-27T06:11:13;19.00;99.90
7704;DHT22;3894;49.700;10.770;2022-08-27T06:13:39;19.10;99.90
7704;DHT22;3894;49.700;10.770;2022-08-27T06:16:06;19.20;99.90
7704;DHT22;3894;49.700;10.770;2022-08-27T06:18:33;19.30;99.90
7704;DHT22;3894;49.700;10.770;2022-08-27T06:20:59;19.40;99.90
7704;DHT22;3894;49.700;10.770;2022-08-27T06:23:25;19.50;99.90
7704;DHT22;3894;49.700;10.770;2022-08-27T06:25:51;19.50;99.90
7704;DHT22;3894;49.700;10.770;2022-08-27T06:28:21;19.50;99.90
7704;DHT22;3894;49.700;10.770;2022-08-27T06:30:47;19.50;99.90
7704;DHT22;3894;49.700;10.770;2022-08-27T06:33:13;19.50;99.90
7704;DHT22;3894;49.700;10.770;2022-08-27T06:35:39;19.30;99.90
7704;DHT22;3894;49.700;10.770;2022-08-27T06:38:04;19.30;99.90
7704;DHT22;3894;49.700;10.770;2022-08-27T06:40:30;19.40;99.90
7704;DHT22;3894;49.700;10.770;2022-08-27T06:42:55;19.40;99.90
7704;DHT22;3894;49.700;10.770;2022-08-27T06:45:21;19.40;99.90
7704;DHT22;3894;49.700;10.770;2022-08-27T06:47:47;19.40;99.90
7704;DHT22;3894;49.700;10.770;2022-08-27T06:50:12;19.30;99.90
7704;DHT22;3894;49.700;10.770;2022-08-27T06:52:38;19.30;99.90
7704;DHT22;3894;49.700;10.770;2022-08-27T06:55:04;19.30;99.90
7704;DHT22;3894;49.700;10.770;2022-08-27T06:57:30;19.20;99.90
7704;DHT22;3894;49.700;10.770;2022-08-27T06:59:55;19.20;99.90
7704;DHT22;3894;49.700;10.770;2022-08-27T07:02:21;19.10;99.90
7704;DHT22;3894;49.700;10.770;2022-08-27T07:04:46;19.00;99.90
7704;DHT22;3894;49.700;10.770;2022-08-27T07:07:12;19.10;99.90
7704;DHT22;3894;49.700;10.770;2022-08-27T07:09:38;19.00;99.90
7704;DHT22;3894;49.700;10.770;2022-08-27T07:12:04;19.00;99.90
7704;DHT22;3894;49.700;10.770;2022-08-27T07:14:31;19.10;99.90
7704;DHT22;3894;49.700;10.770;2022-08-27T07:16:57;19.20;99.90
7704;DHT22;3894;49.700;10.770;2022-08-27T07:19:23;19.20;99.90
7704;DHT22;3894;49.700;10.770;2022-08-27T07:21:49;19.10;99.90
7704;DHT22;3894;49.700;10.770;2022-08-27T07:24:15;19.10;99.90
7704;DHT22;3894;49.700;10.770;2022-08-27T07:26:42;19.10;99.90
7704;DHT22;3894;49.700;10.770;2022-08-27T07:29:09;19.10;99.90
7704;DHT22;3894;49.700;10.770;2022-08-27T07:31:35;19.20;99.90
7704;DHT22;3894;49.700;10.770;2022-08-27T07:34:02;19.20;99.90
7704;DHT22;3894;49.700;10.770;2022-08-27T07:36:29;19.20;99.90
7704;DHT22;3894;49.700;10.770;2022-08-27T07:38:54;19.20;99.90
7704;DHT22;3894;49.700;10.770;2022-08-27T07:41:20;19.30;99.90
7704;DHT22;3894;49.700;10.770;2022-08-27T07:43:46;19.40;99.90
7704;DHT22;3894;49.700;10.770;2022-08-27T07:46:30;19.50;99.90
7704;DHT22;3894;49.700;10.770;2022-08-27T07:48:56;19.50;99.90
7704;DHT22;3894;49.700;10.770;2022-08-27T07:51:24;19.60;99.90
7704;DHT22;3894;49.700;10.770;2022-08-27T07:53:50;19.70;99.90
7704;DHT22;3894;49.700;10.770;2022-08-27T07:56:15;19.80;99.90
7704;DHT22;3894;49.700;10.770;2022-08-27T07:58:41;19.90;99.90
7704;DHT22;3894;49.700;10.770;2022-08-27T08:01:08;19.80;99.90
7704;DHT22;3894;49.700;10.770;2022-08-27T08:03:34;19.90;99.90
7704;DHT22;3894;49.700;10.770;2022-08-27T08:06:04;19.90;99.90
7704;DHT22;3894;49.700;10.770;2022-08-27T08:08:31;20.00;99.90
7704;DHT22;3894;49.700;10.770;2022-08-27T08:10:57;20.10;99.90
7704;DHT22;3894;49.700;10.770;2022-08-27T08:13:23;20.20;99.90
7704;DHT22;3894;49.700;10.770;2022-08-27T08:15:49;20.20;99.90
7704;DHT22;3894;49.700;10.770;2022-08-27T08:18:15;20.30;99.90
7704;DHT22;3894;49.700;10.770;2022-08-27T08:20:40;20.40;99.90
7704;DHT22;3894;49.700;10.770;2022-08-27T08:23:06;20.50;99.90
7704;DHT22;3894;49.700;10.770;2022-08-27T08:25:32;20.50;99.90
7704;DHT22;3894;49.700;10.770;2022-08-27T08:27:58;20.50;99.90
7704;DHT22;3894;49.700;10.770;2022-08-27T08:30:25;20.50;99.90
7704;DHT22;3894;49.700;10.770;2022-08-27T08:32:51;20.50;99.90
7704;DHT22;3894;49.700;10.770;2022-08-27T08:35:16;20.60;99.90
7704;DHT22;3894;49.700;10.770;2022-08-27T08:37:42;20.70;99.90
7704;DHT22;3894;49.700;10.770;2022-08-27T08:40:09;20.60;99.90
7704;DHT22;3894;49.700;10.770;2022-08-27T08:42:44;20.70;99.90
7704;DHT22;3894;49.700;10.770;2022-08-27T08:45:13;20.60;99.90
7704;DHT22;3894;49.700;10.770;2022-08-27T08:47:50;20.20;99.90
7704;DHT22;3894;49.700;10.770;2022-08-27T08:50:53;20.10;99.90
7704;DHT22;3894;49.700;10.770;2022-08-27T08:54:17;20.20;99.90
7704;DHT22;3894;49.700;10.770;2022-08-27T08:56:09;20.30;99.90
7704;DHT22;3894;49.700;10.770;2022-08-27T09:01:07;20.10;99.90
7704;DHT22;3894;49.700;10.770;2022-08-27T09:03:35;20.00;99.90
7704;DHT22;3894;49.700;10.770;2022-08-27T09:06:20;19.90;99.90
7704;DHT22;3894;49.700;10.770;2022-08-27T09:08:47;19.90;99.90
7704;DHT22;3894;49.700;10.770;2022-08-27T09:11:17;19.80;99.90
7704;DHT22;3894;49.700;10.770;2022-08-27T09:16:42;19.60;99.90
7704;DHT22;3894;49.700;10.770;2022-08-27T09:19:08;19.70;99.90
7704;DHT22;3894;49.700;10.770;2022-08-27T09:24:24;19.80;99.90
7704;DHT22;3894;49.700;10.770;2022-08-27T09:26:53;19.80;99.90
7704;DHT22;3894;49.700;10.770;2022-08-27T09:29:18;19.80;99.90
7704;DHT22;3894;49.700;10.770;2022-08-27T09:31:55;19.80;99.90
7704;DHT22;3894;49.700;10.770;2022-08-27T09:34:22;19.80;99.90
7704;DHT22;3894;49.700;10.770;2022-08-27T09:37:37;19.80;99.90
7704;DHT22;3894;49.700;10.770;2022-08-27T09:39:47;19.90;99.90
7704;DHT22;3894;49.700;10.770;2022-08-27T09:42:41;20.00;99.90
7704;DHT22;3894;49.700;10.770;2022-08-27T09:45:20;20.10;99.90
7704;DHT22;3894;49.700;10.770;2022-08-27T09:47:52;20.10;99.90
7704;DHT22;3894;49.700;10.770;2022-08-27T09:50:21;20.20;99.90
7704;DHT22;3894;49.700;10.770;2022-08-27T09:52:56;20.10;99.90
7704;DHT22;3894;49.700;10.770;2022-08-27T09:55:35;20.10;99.90
7704;DHT22;3894;49.700;10.770;2022-08-27T09:58:05;20.10;99.90
7704;DHT22;3894;49.700;10.770;2022-08-27T10:00:39;20.00;99.90
7704;DHT22;3894;49.700;10.770;2022-08-27T10:03:06;20.00;99.90
7704;DHT22;3894;49.700;10.770;2022-08-27T10:05:49;20.00;99.90
7704;DHT22;3894;49.700;10.770;2022-08-27T10:11:10;20.10;99.90
7704;DHT22;3894;49.700;10.770;2022-08-27T10:14:04;20.20;99.90
7704;DHT22;3894;49.700;10.770;2022-08-27T10:19:34;20.40;99.90
7704;DHT22;3894;49.700;10.770;2022-08-27T10:33:31;20.60;99.90
7704;DHT22;3894;49.700;10.770;2022-08-27T10:36:28;20.70;99.90
7704;DHT22;3894;49.700;10.770;2022-08-27T10:42:23;21.00;99.90
7704;DHT22;3894;49.700;10.770;2022-08-27T10:47:54;21.10;99.90
7704;DHT22;3894;49.700;10.770;2022-08-27T10:50:29;21.00;99.90
7704;DHT22;3894;49.700;10.770;2022-08-27T10:53:09;21.00;99.90
7704;DHT22;3894;49.700;10.770;2022-08-27T10:55:40;20.90;99.90
7704;DHT22;3894;49.700;10.770;2022-08-27T11:03:44;20.70;99.90
7704;DHT22;3894;49.700;10.770;2022-08-27T11:06:27;20.60;99.90
7704;DHT22;3894;49.700;10.770;2022-08-27T11:09:21;20.60;99.90
7704;DHT22;3894;49.700;10.770;2022-08-27T11:11:51;20.60;99.90
7704;DHT22;3894;49.700;10.770;2022-08-27T11:14:29;20.70;99.90
7704;DHT22;3894;49.700;10.770;2022-08-27T11:17:03;20.80;99.90
7704;DHT22;3894;49.700;10.770;2022-08-27T11:24:59;21.40;99.90
7704;DHT22;3894;49.700;10.770;2022-08-27T11:27:30;21.50;99.90
7704;DHT22;3894;49.700;10.770;2022-08-27T11:33:25;21.80;99.90
7704;DHT22;3894;49.700;10.770;2022-08-27T11:36:14;21.90;99.90
7704;DHT22;3894;49.700;10.770;2022-08-27T11:43:58;21.50;99.90
7704;DHT22;3894;49.700;10.770;2022-08-27T11:46:27;21.50;99.90
7704;DHT22;3894;49.700;10.770;2022-08-27T11:49:01;21.60;99.90
7704;DHT22;3894;49.700;10.770;2022-08-27T11:51:38;21.70;99.90
7704;DHT22;3894;49.700;10.770;2022-08-27T11:54:22;21.80;99.90
7704;DHT22;3894;49.700;10.770;2022-08-27T11:56:50;21.80;99.90
7704;DHT22;3894;49.700;10.770;2022-08-27T11:59:30;21.60;99.90
7704;DHT22;3894;49.700;10.770;2022-08-27T12:02:23;21.50;99.90
7704;DHT22;3894;49.700;10.770;2022-08-27T12:04:50;21.40;99.90
7704;DHT22;3894;49.700;10.770;2022-08-27T12:10:12;21.70;99.90
7704;DHT22;3894;49.700;10.770;2022-08-27T12:12:51;21.70;99.90
7704;DHT22;3894;49.700;10.770;2022-08-27T12:18:26;21.90;99.90
7704;DHT22;3894;49.700;10.770;2022-08-27T12:21:12;21.90;99.90
7704;DHT22;3894;49.700;10.770;2022-08-27T12:23:54;21.90;99.90
7704;DHT22;3894;49.700;10.770;2022-08-27T12:29:25;22.30;99.90
7704;DHT22;3894;49.700;10.770;2022-08-27T12:32:04;22.40;99.90
7704;DHT22;3894;49.700;10.770;2022-08-27T12:34:45;22.50;99.90
7704;DHT22;3894;49.700;10.770;2022-08-27T12:37:17;22.50;99.90
7704;DHT22;3894;49.700;10.770;2022-08-27T12:39:46;22.50;99.90
7704;DHT22;3894;49.700;10.770;2022-08-27T12:42:16;22.40;99.90
7704;DHT22;3894;49.700;10.770;2022-08-27T12:44:43;22.40;99.90
7704;DHT22;3894;49.700;10.770;2022-08-27T12:47:10;22.50;99.90
7704;DHT22;3894;49.700;10.770;2022-08-27T12:49:46;22.60;99.90
7704;DHT22;3894;49.700;10.770;2022-08-27T12:55:02;22.70;99.90
7704;DHT22;3894;49.700;10.770;2022-08-27T12:57:51;22.40;99.90
7704;DHT22;3894;49.700;10.770;2022-08-27T13:00:21;22.40;99.90
7704;DHT22;3894;49.700;10.770;2022-08-27T13:03:19;22.50;99.90
7704;DHT22;3894;49.700;10.770;2022-08-27T13:05:48;22.30;99.90
7704;DHT22;3894;49.700;10.770;2022-08-27T13:08:33;22.30;99.90
7704;DHT22;3894;49.700;10.770;2022-08-27T13:11:30;22.10;99.90
7704;DHT22;3894;49.700;10.770;2022-08-27T13:14:09;22.30;99.90
7704;DHT22;3894;49.700;10.770;2022-08-27T13:16:38;22.50;99.90
7704;DHT22;3894;49.700;10.770;2022-08-27T13:19:19;22.60;99.90
7704;DHT22;3894;49.700;10.770;2022-08-27T13:21:47;22.60;99.90
7704;DHT22;3894;49.700;10.770;2022-08-27T13:24:29;22.70;99.90
7704;DHT22;3894;49.700;10.770;2022-08-27T13:26:56;22.70;99.90
7704;DHT22;3894;49.700;10.770;2022-08-27T13:29:23;23.00;99.90
7704;DHT22;3894;49.700;10.770;2022-08-27T13:31:50;23.50;99.90
7704;DHT22;3894;49.700;10.770;2022-08-27T13:34:22;24.00;99.90
7704;DHT22;3894;49.700;10.770;2022-08-27T13:37:01;23.80;99.90
7704;DHT22;3894;49.700;10.770;2022-08-27T13:39:29;23.60;99.90
7704;DHT22;3894;49.700;10.770;2022-08-27T13:41:57;23.30;99.90
7704;DHT22;3894;49.700;10.770;2022-08-27T13:44:32;23.10;99.90
7704;DHT22;3894;49.700;10.770;2022-08-27T13:49:27;23.10;99.90
7704;DHT22;3894;49.700;10.770;2022-08-27T13:54:30;23.00;99.90
7704;DHT22;3894;49.700;10.770;2022-08-27T13:57:07;23.00;99.90
7704;DHT22;3894;49.700;10.770;2022-08-27T13:59:37;23.00;99.90
7704;DHT22;3894;49.700;10.770;2022-08-27T14:05:46;23.00;99.90
7704;DHT22;3894;49.700;10.770;2022-08-27T14:07:44;23.10;99.90
7704;DHT22;3894;49.700;10.770;2022-08-27T14:12:45;23.40;99.90
7704;DHT22;3894;49.700;10.770;2022-08-27T14:15:34;23.20;99.90
7704;DHT22;3894;49.700;10.770;2022-08-27T14:18:04;23.20;99.90
7704;DHT22;3894;49.700;10.770;2022-08-27T14:20:33;23.40;99.90
7704;DHT22;3894;49.700;10.770;2022-08-27T14:22:58;23.30;99.90
7704;DHT22;3894;49.700;10.770;2022-08-27T14:25:24;23.30;99.90
7704;DHT22;3894;49.700;10.770;2022-08-27T14:27:52;23.30;99.90
7704;DHT22;3894;49.700;10.770;2022-08-27T14:30:21;23.30;99.90
7704;DHT22;3894;49.700;10.770;2022-08-27T14:32:47;23.40;99.90
7704;DHT22;3894;49.700;10.770;2022-08-27T14:35:14;23.50;99.90
7704;DHT22;3894;49.700;10.770;2022-08-27T14:37:40;23.10;99.90
7704;DHT22;3894;49.700;10.770;2022-08-27T14:40:08;23.10;99.90
7704;DHT22;3894;49.700;10.770;2022-08-27T14:42:34;23.30;99.90
7704;DHT22;3894;49.700;10.770;2022-08-27T14:45:01;23.30;99.90
7704;DHT22;3894;49.700;10.770;2022-08-27T14:47:27;23.10;99.90
7704;DHT22;3894;49.700;10.770;2022-08-27T14:49:53;23.00;99.90
7704;DHT22;3894;49.700;10.770;2022-08-27T14:52:19;23.10;99.90
7704;DHT22;3894;49.700;10.770;2022-08-27T14:54:45;23.20;99.90
7704;DHT22;3894;49.700;10.770;2022-08-27T14:57:10;23.20;99.90
7704;DHT22;3894;49.700;10.770;2022-08-27T14:59:37;23.40;99.90
7704;DHT22;3894;49.700;10.770;2022-08-27T15:02:07;23.30;99.90
7704;DHT22;3894;49.700;10.770;2022-08-27T15:04:33;23.30;99.90
7704;DHT22;3894;49.700;10.770;2022-08-27T15:06:59;23.30;99.90
7704;DHT22;3894;49.700;10.770;2022-08-27T15:09:25;23.30;99.90
7704;DHT22;3894;49.700;10.770;2022-08-27T15:11:50;23.20;99.90
7704;DHT22;3894;49.700;10.770;2022-08-27T15:14:32;23.10;99.90
7704;DHT22;3894;49.700;10.770;2022-08-27T15:16:59;23.00;99.90
7704;DHT22;3894;49.700;10.770;2022-08-27T15:19:26;22.90;99.90
7704;DHT22;3894;49.700;10.770;2022-08-27T15:21:52;22.80;99.90
7704;DHT22;3894;49.700;10.770;2022-08-27T15:24:23;22.90;99.90
7704;DHT22;3894;49.700;10.770;2022-08-27T15:26:50;23.00;99.90
7704;DHT22;3894;49.700;10.770;2022-08-27T15:29:19;22.90;99.90
7704;DHT22;3894;49.700;10.770;2022-08-27T15:31:45;23.10;99.90
7704;DHT22;3894;49.700;10.770;2022-08-27T15:34:12;23.10;99.90
7704;DHT22;3894;49.700;10.770;2022-08-27T15:36:38;23.10;99.90
7704;DHT22;3894;49.700;10.770;2022-08-27T15:39:07;23.10;99.90
7704;DHT22;3894;49.700;10.770;2022-08-27T15:41:33;23.10;99.90
7704;DHT22;3894;49.700;10.770;2022-08-27T15:44:01;23.10;99.90
7704;DHT22;3894;49.700;10.770;2022-08-27T15:46:27;23.00;99.90
7704;DHT22;3894;49.700;10.770;2022-08-27T15:48:53;22.90;99.90
7704;DHT22;3894;49.700;10.770;2022-08-27T15:51:30;22.90;99.90
7704;DHT22;3894;49.700;10.770;2022-08-27T15:53:57;22.90;99.90
7704;DHT22;3894;49.700;10.770;2022-08-27T15:56:23;22.80;99.90
7704;DHT22;3894;49.700;10.770;2022-08-27T15:58:50;22.80;99.90
7704;DHT22;3894;49.700;10.770;2022-08-27T16:01:22;22.70;99.90
7704;DHT22;3894;49.700;10.770;2022-08-27T16:03:48;22.60;99.90
7704;DHT22;3894;49.700;10.770;2022-08-27T16:06:14;22.50;99.90
7704;DHT22;3894;49.700;10.770;2022-08-27T16:08:41;22.50;99.90
7704;DHT22;3894;49.700;10.770;2022-08-27T16:11:07;22.50;99.90
7704;DHT22;3894;49.700;10.770;2022-08-27T16:13:32;22.50;99.90
7704;DHT22;3894;49.700;10.770;2022-08-27T16:15:59;22.40;99.90
7704;DHT22;3894;49.700;10.770;2022-08-27T16:18:31;22.40;99.90
7704;DHT22;3894;49.700;10.770;2022-08-27T16:20:58;22.30;99.90
7704;DHT22;3894;49.700;10.770;2022-08-27T16:23:25;22.20;99.90
7704;DHT22;3894;49.700;10.770;2022-08-27T16:25:52;22.20;99.90
7704;DHT22;3894;49.700;10.770;2022-08-27T16:28:18;22.20;99.90
7704;DHT22;3894;49.700;10.770;2022-08-27T16:30:44;22.20;99.90
7704;DHT22;3894;49.700;10.770;2022-08-27T16:33:09;22.20;99.90
7704;DHT22;3894;49.700;10.770;2022-08-27T16:35:37;22.10;99.90
7704;DHT22;3894;49.700;10.770;2022-08-27T16:38:03;22.10;99.90
7704;DHT22;3894;49.700;10.770;2022-08-27T16:40:29;22.00;99.90
7704;DHT22;3894;49.700;10.770;2022-08-27T16:42:55;22.00;99.90
7704;DHT22;3894;49.700;10.770;2022-08-27T16:45:22;21.90;99.90
7704;DHT22;3894;49.700;10.770;2022-08-27T16:47:48;21.90;99.90
7704;DHT22;3894;49.700;10.770;2022-08-27T16:50:33;21.90;99.90
7704;DHT22;3894;49.700;10.770;2022-08-27T16:53:18;21.90;99.90
7704;DHT22;3894;49.700;10.770;2022-08-27T16:55:47;21.90;99.90
7704;DHT22;3894;49.700;10.770;2022-08-27T16:58:21;21.80;99.90
7704;DHT22;3894;49.700;10.770;2022-08-27T17:00:54;21.70;99.90
7704;DHT22;3894;49.700;10.770;2022-08-27T17:03:21;21.70;99.90
7704;DHT22;3894;49.700;10.770;2022-08-27T17:05:47;21.80;99.90
7704;DHT22;3894;49.700;10.770;2022-08-27T17:08:18;21.80;99.90
7704;DHT22;3894;49.700;10.770;2022-08-27T17:10:47;21.80;99.90
7704;DHT22;3894;49.700;10.770;2022-08-27T17:13:16;21.80;99.90